Kezdőlap
METAR-TAF:

METAR-TAF

Repülőterek :

Båtsfjord, Norvégia

földrajzi szélesség: 70-38N, földrajzi hosszúság: 029-44E, magasság: 10 m

Jelenlegi meteorológiai megfigyelések

A jelentés 49 perccel ezelõtt készült, 14:50 UTC
Keleti szél 5 kt, észak-északkeleti és dél-délkeleti között változik
Hőmérséklet 3°C
Páratartalom 87%
Légköri nyomás 1002 hPa
Látótávolság 10 km, vagy több
Szakadozott felhőzet 800 lábon
Borult 1000 lábon

METAR: ENBS 261450Z 09005KT 030V150 9999 BKN008 OVC010 03/01 Q1002

Idő: 17:39 (15:39 UTC)


TAF: hiányzik

Meteorológiai megfigyelések és előrejelzések több, mint 4000 repülőtéren (METAR és TAF jelentéseket).

A térképen piros és sárga pontok jelzik az elérhető meteorológiai állomásokat.

Mozgassa az egeret a pont fölött, hogy megjelenjen az állomás neve.

Azután kattintson az időjárási megfigyelések és előrejelzések megtekintéséhez.

A térkép megváltoztatása: kattintson a fekete keresztel jelölt zöld gombra ráközelítéshez, a vonallal jelölt zöld gombra távolításhoz, vagy a zöld nyilakra a szomszédos térképek eléréséhez.


METAR-TAF: